createdAt,value
2018-01-03T00:00:04.454Z,1001.72
2018-01-03T00:01:04.410Z,1001.79
2018-01-03T00:02:04.366Z,1001.62
2018-01-03T00:03:04.341Z,1001.64
2018-01-03T00:04:04.313Z,1001.57
2018-01-03T00:05:04.242Z,1001.50
2018-01-03T00:06:04.215Z,1001.49
2018-01-03T00:07:04.156Z,1001.45
2018-01-03T00:08:04.154Z,1001.33
2018-01-03T00:09:04.080Z,1001.30
2018-01-03T00:10:04.101Z,1001.25
2018-01-03T00:11:03.989Z,1001.19
2018-01-03T00:12:03.954Z,1001.15
2018-01-03T00:13:03.917Z,1001.08
2018-01-03T00:14:03.863Z,1001.06
2018-01-03T00:15:03.835Z,1001.06
2018-01-03T00:16:03.786Z,1001.03
2018-01-03T00:17:03.753Z,1001.01
2018-01-03T00:18:03.699Z,1000.98
2018-01-03T00:19:03.655Z,1000.93
2018-01-03T00:20:03.616Z,1000.91
2018-01-03T00:21:03.572Z,1000.85
2018-01-03T00:22:03.528Z,1000.86
2018-01-03T00:23:03.488Z,1000.86
2018-01-03T00:24:03.443Z,1000.81
2018-01-03T00:25:03.402Z,1000.80
2018-01-03T00:26:03.360Z,1000.85
2018-01-03T00:27:03.322Z,1000.77
2018-01-03T00:28:03.278Z,1000.72
2018-01-03T00:29:03.235Z,1000.67
2018-01-03T00:30:03.196Z,1000.63
2018-01-03T00:31:03.154Z,1000.66
2018-01-03T00:32:03.117Z,1000.63
2018-01-03T00:33:03.069Z,1000.60
2018-01-03T00:34:03.027Z,1000.57
2018-01-03T00:35:02.988Z,1000.55
2018-01-03T00:36:02.947Z,1000.52
2018-01-03T00:37:02.903Z,1000.46
2018-01-03T00:38:02.860Z,1000.45
2018-01-03T00:39:02.821Z,1000.40
2018-01-03T00:40:02.776Z,1000.36
2018-01-03T00:41:02.736Z,1000.38
2018-01-03T00:42:02.700Z,1000.32
2018-01-03T00:43:02.651Z,1000.32
2018-01-03T00:44:02.609Z,1000.29
2018-01-03T00:45:02.567Z,1000.29
2018-01-03T00:46:02.543Z,1000.24
2018-01-03T00:47:02.484Z,1000.15
2018-01-03T00:48:02.445Z,1000.09
2018-01-03T00:49:02.406Z,1000.03
2018-01-03T00:50:02.358Z,999.99
2018-01-03T00:51:02.325Z,999.98
2018-01-03T00:52:02.278Z,999.94
2018-01-03T00:53:02.233Z,999.96
2018-01-03T00:54:02.192Z,999.90
2018-01-03T00:55:02.151Z,999.90
2018-01-03T00:56:02.106Z,999.91
2018-01-03T00:57:02.071Z,999.92
2018-01-03T00:58:02.022Z,999.87
2018-01-03T00:59:01.983Z,999.84
2018-01-03T01:00:01.943Z,999.82
2018-01-03T01:01:01.900Z,999.76
2018-01-03T01:02:01.856Z,999.76
2018-01-03T01:03:01.813Z,999.73
2018-01-03T01:04:01.781Z,999.72
2018-01-03T01:05:01.761Z,999.72
2018-01-03T01:06:01.704Z,999.63
2018-01-03T01:07:01.659Z,999.57
2018-01-03T01:08:01.607Z,999.56
2018-01-03T01:09:01.564Z,999.47
2018-01-03T01:10:01.523Z,999.42
2018-01-03T01:11:01.480Z,999.35
2018-01-03T01:12:01.436Z,999.34
2018-01-03T01:13:01.394Z,999.30
2018-01-03T01:14:01.358Z,999.34
2018-01-03T01:15:01.312Z,999.29
2018-01-03T01:16:01.277Z,999.24
2018-01-03T01:17:01.227Z,999.28
2018-01-03T01:18:01.185Z,999.26
2018-01-03T01:19:01.147Z,999.16
2018-01-03T01:20:01.102Z,999.13
2018-01-03T01:21:01.060Z,999.15
2018-01-03T01:22:01.026Z,999.16
2018-01-03T01:23:00.978Z,999.16
2018-01-03T01:24:00.934Z,999.14
2018-01-03T01:25:00.900Z,999.10
2018-01-03T01:26:00.851Z,999.06
2018-01-03T01:27:00.926Z,999.02
2018-01-03T01:28:00.771Z,998.95
2018-01-03T01:29:00.759Z,998.91
2018-01-03T01:30:00.764Z,998.82
2018-01-03T01:31:00.644Z,998.84
2018-01-03T01:32:00.602Z,998.77
2018-01-03T01:33:00.558Z,998.71
2018-01-03T01:34:00.526Z,998.65
2018-01-03T01:35:00.472Z,998.65
2018-01-03T01:36:00.441Z,998.59
2018-01-03T01:37:00.389Z,998.53
2018-01-03T01:38:00.363Z,998.48
2018-01-03T01:39:00.314Z,998.44
2018-01-03T01:40:00.272Z,998.44
2018-01-03T01:41:00.222Z,998.39
2018-01-03T01:42:00.181Z,998.36
2018-01-03T01:43:00.137Z,998.33
2018-01-03T01:44:00.102Z,998.40
2018-01-03T01:45:00.065Z,998.30
2018-01-03T01:46:00.025Z,998.27
2018-01-03T01:46:59.971Z,998.23
2018-01-03T01:47:59.937Z,998.16
2018-01-03T01:48:59.917Z,998.15
2018-01-03T01:49:59.845Z,998.13
2018-01-03T01:50:59.803Z,998.08
2018-01-03T01:51:59.763Z,998.10
2018-01-03T01:52:59.719Z,997.99
2018-01-03T01:53:59.680Z,998.02
2018-01-03T01:54:59.638Z,997.83
2018-01-03T01:55:59.594Z,997.82
2018-01-03T01:56:59.553Z,997.78
2018-01-03T01:57:59.506Z,997.75
2018-01-03T01:58:59.469Z,997.71
2018-01-03T01:59:59.425Z,997.60
2018-01-03T02:00:59.393Z,997.60
2018-01-03T02:01:59.351Z,997.55
2018-01-03T02:02:59.308Z,997.51
2018-01-03T02:03:59.257Z,997.50
2018-01-03T02:04:59.221Z,997.43
2018-01-03T02:05:59.177Z,997.39
2018-01-03T02:06:59.155Z,997.31
2018-01-03T02:07:59.091Z,997.36
2018-01-03T02:08:59.060Z,997.27
2018-01-03T02:09:59.014Z,997.19
2018-01-03T02:10:59.008Z,997.18
2018-01-03T02:11:58.934Z,997.09
2018-01-03T02:12:58.883Z,997.08
2018-01-03T02:13:58.849Z,997.06
2018-01-03T02:14:58.815Z,997.02
2018-01-03T02:15:58.768Z,997.00
2018-01-03T02:16:58.771Z,996.98
2018-01-03T02:17:58.728Z,997.01
2018-01-03T02:18:58.629Z,996.95
2018-01-03T02:19:58.617Z,996.95
2018-01-03T02:20:58.569Z,996.94
2018-01-03T02:21:58.561Z,996.89
2018-01-03T02:22:58.478Z,996.89
2018-01-03T02:23:58.420Z,996.85
2018-01-03T02:24:58.387Z,996.78
2018-01-03T02:25:58.339Z,996.75
2018-01-03T02:26:58.307Z,996.69
2018-01-03T02:27:58.255Z,996.64
2018-01-03T02:28:58.217Z,996.63
2018-01-03T02:29:58.187Z,996.57
2018-01-03T02:30:58.139Z,996.53
2018-01-03T02:31:58.096Z,996.45
2018-01-03T02:32:58.078Z,996.40
2018-01-03T02:33:58.007Z,996.38
2018-01-03T02:34:57.958Z,996.28
2018-01-03T02:35:57.924Z,996.26
2018-01-03T02:36:57.879Z,996.20
2018-01-03T02:37:57.840Z,996.14
2018-01-03T02:38:57.804Z,996.15
2018-01-03T02:39:57.752Z,996.04
2018-01-03T02:40:57.715Z,996.03
2018-01-03T02:41:57.676Z,996.01
2018-01-03T02:42:57.634Z,995.96
2018-01-03T02:43:57.586Z,995.78
2018-01-03T02:44:57.548Z,995.78
2018-01-03T02:45:57.503Z,995.72
2018-01-03T02:46:57.472Z,995.72
2018-01-03T02:47:57.423Z,995.68
2018-01-03T02:48:57.388Z,995.56
2018-01-03T02:49:57.338Z,995.54
2018-01-03T02:50:57.324Z,995.51
2018-01-03T02:51:57.257Z,995.49
2018-01-03T02:52:57.212Z,995.41
2018-01-03T02:53:57.170Z,995.46
2018-01-03T02:54:57.129Z,995.36
2018-01-03T02:55:57.092Z,995.36
2018-01-03T02:56:57.062Z,995.27
2018-01-03T02:57:57.004Z,995.16
2018-01-03T02:58:56.964Z,995.18
2018-01-03T02:59:56.919Z,995.17
2018-01-03T03:00:56.877Z,995.11
2018-01-03T03:01:56.838Z,995.05
2018-01-03T03:02:56.796Z,994.98
2018-01-03T03:03:56.754Z,994.94
2018-01-03T03:04:56.715Z,994.87
2018-01-03T03:05:56.676Z,994.85
2018-01-03T03:06:56.631Z,994.85
2018-01-03T03:07:56.588Z,994.80
2018-01-03T03:08:56.552Z,994.80
2018-01-03T03:09:56.506Z,994.75
2018-01-03T03:10:56.475Z,994.72
2018-01-03T03:11:56.424Z,994.65
2018-01-03T03:12:56.384Z,994.56
2018-01-03T03:13:56.337Z,994.49
2018-01-03T03:14:56.306Z,994.51
2018-01-03T03:15:56.256Z,994.49
2018-01-03T03:16:56.215Z,994.48
2018-01-03T03:17:56.186Z,994.26
2018-01-03T03:18:56.144Z,994.35
2018-01-03T03:19:56.100Z,994.34
2018-01-03T03:20:56.049Z,994.28
2018-01-03T03:21:56.009Z,994.22
2018-01-03T03:22:55.968Z,994.21
2018-01-03T03:23:55.925Z,994.10
2018-01-03T03:24:55.883Z,994.06
2018-01-03T03:25:55.848Z,994.06
2018-01-03T03:26:55.805Z,993.98
2018-01-03T03:27:55.757Z,993.90
2018-01-03T03:28:55.724Z,993.87
2018-01-03T03:29:55.679Z,993.94
2018-01-03T03:30:55.638Z,993.91
2018-01-03T03:31:55.593Z,993.94
2018-01-03T03:32:55.550Z,993.91
2018-01-03T03:33:55.536Z,993.91
2018-01-03T03:34:55.474Z,993.81
2018-01-03T03:35:55.432Z,993.82
2018-01-03T03:36:55.388Z,993.77
2018-01-03T03:37:55.358Z,993.69
2018-01-03T03:38:55.312Z,993.59
2018-01-03T03:39:55.267Z,993.55
2018-01-03T03:40:55.224Z,993.54
2018-01-03T03:41:55.181Z,993.49
2018-01-03T03:42:55.148Z,993.52
2018-01-03T03:43:55.104Z,993.45
2018-01-03T03:44:55.060Z,993.36
2018-01-03T03:45:55.022Z,993.30
2018-01-03T03:46:54.974Z,993.30
2018-01-03T03:47:54.935Z,993.24
2018-01-03T03:48:54.894Z,993.20
2018-01-03T03:50:15.846Z,993.21
2018-01-03T03:50:54.816Z,993.14
2018-01-03T03:51:54.769Z,993.08
2018-01-03T03:52:54.728Z,993.03
2018-01-03T03:53:54.690Z,993.00
2018-01-03T03:54:54.655Z,993.02
2018-01-03T03:55:54.608Z,992.91
2018-01-03T03:56:54.562Z,992.78
2018-01-03T03:57:54.529Z,992.91
2018-01-03T03:58:54.480Z,992.79
2018-01-03T03:59:54.444Z,992.76
2018-01-03T04:00:54.402Z,992.75
2018-01-03T04:01:54.360Z,992.61
2018-01-03T04:02:54.316Z,992.62
2018-01-03T04:03:54.274Z,992.57
2018-01-03T04:04:54.234Z,992.52
2018-01-03T04:05:54.193Z,992.46
2018-01-03T04:06:54.150Z,992.39
2018-01-03T04:07:54.117Z,992.34
2018-01-03T04:08:54.070Z,992.26
2018-01-03T04:09:54.030Z,992.24
2018-01-03T04:10:53.997Z,992.18
2018-01-03T04:11:53.946Z,992.11
2018-01-03T04:12:53.915Z,992.08
2018-01-03T04:13:53.878Z,991.97
2018-01-03T04:14:53.824Z,991.96
2018-01-03T04:15:53.782Z,991.80
2018-01-03T04:16:53.742Z,991.79
2018-01-03T04:17:53.701Z,991.78
2018-01-03T04:18:53.667Z,991.69
2018-01-03T04:19:53.619Z,991.70
2018-01-03T04:20:53.578Z,991.66
2018-01-03T04:21:53.539Z,991.60
2018-01-03T04:22:53.524Z,991.56
2018-01-03T04:23:53.452Z,991.50
2018-01-03T04:24:53.435Z,991.42
2018-01-03T04:25:53.380Z,991.33
2018-01-03T04:26:53.331Z,991.24
2018-01-03T04:27:53.296Z,991.23
2018-01-03T04:28:53.248Z,991.18
2018-01-03T04:29:53.209Z,991.15
2018-01-03T04:30:53.167Z,991.14
2018-01-03T04:31:53.123Z,990.99
2018-01-03T04:32:53.086Z,990.99
2018-01-03T04:33:53.047Z,990.97
2018-01-03T04:34:53.004Z,990.88
2018-01-03T04:35:52.969Z,990.85
2018-01-03T04:36:52.925Z,990.81
2018-01-03T04:37:52.879Z,990.83
2018-01-03T04:38:52.841Z,990.81
2018-01-03T04:39:52.803Z,990.70
2018-01-03T04:40:52.794Z,990.72
2018-01-03T04:41:52.721Z,990.69
2018-01-03T04:42:52.683Z,990.56
2018-01-03T04:43:52.644Z,990.61
2018-01-03T04:44:52.603Z,990.54
2018-01-03T04:45:52.568Z,990.46
2018-01-03T04:46:52.513Z,990.37
2018-01-03T04:47:52.469Z,990.46
2018-01-03T04:48:52.427Z,990.38
2018-01-03T04:49:52.402Z,990.39
2018-01-03T04:50:52.350Z,990.27
2018-01-03T04:51:52.302Z,990.25
2018-01-03T04:52:52.265Z,990.04
2018-01-03T04:53:52.221Z,989.94
2018-01-03T04:54:52.184Z,989.84
2018-01-03T04:55:52.143Z,989.74
2018-01-03T04:56:52.126Z,989.73
2018-01-03T04:57:52.080Z,989.65
2018-01-03T04:58:52.043Z,989.51
2018-01-03T04:59:51.978Z,989.40
2018-01-03T05:00:51.948Z,989.24
2018-01-03T05:01:51.900Z,989.20
2018-01-03T05:02:51.861Z,989.21
2018-01-03T05:03:51.808Z,989.32
2018-01-03T05:04:51.771Z,989.22
2018-01-03T05:05:51.728Z,989.38
2018-01-03T05:06:51.689Z,989.38
2018-01-03T05:07:51.645Z,989.36
2018-01-03T05:08:51.606Z,989.27
2018-01-03T05:09:51.568Z,989.20
2018-01-03T05:10:51.526Z,989.18
2018-01-03T05:11:51.495Z,989.05
2018-01-03T05:12:51.443Z,989.04
2018-01-03T05:13:51.401Z,989.08
2018-01-03T05:14:51.363Z,989.01
2018-01-03T05:15:51.316Z,988.98
2018-01-03T05:16:51.276Z,988.94
2018-01-03T05:17:51.246Z,988.75
2018-01-03T05:18:51.194Z,988.78
2018-01-03T05:19:51.158Z,988.73
2018-01-03T05:20:51.108Z,988.69
2018-01-03T05:21:51.069Z,988.67
2018-01-03T05:22:51.027Z,988.56
2018-01-03T05:23:50.993Z,988.50
2018-01-03T05:24:50.943Z,988.46
2018-01-03T05:25:50.912Z,988.36
2018-01-03T05:26:50.866Z,988.39
2018-01-03T05:27:50.826Z,988.31
2018-01-03T05:28:50.784Z,988.30
2018-01-03T05:29:50.746Z,988.24
2018-01-03T05:30:50.696Z,988.23
2018-01-03T05:31:50.661Z,988.22
2018-01-03T05:32:50.613Z,988.20
2018-01-03T05:33:50.571Z,988.32
2018-01-03T05:34:50.534Z,988.24
2018-01-03T05:35:50.485Z,988.26
2018-01-03T05:36:50.447Z,988.25
2018-01-03T05:37:50.404Z,988.26
2018-01-03T05:38:50.374Z,988.16
2018-01-03T05:39:50.324Z,988.13
2018-01-03T05:40:50.281Z,988.18
2018-01-03T05:41:50.246Z,988.20
2018-01-03T05:42:50.201Z,988.12
2018-01-03T05:43:50.158Z,988.14
2018-01-03T05:44:50.112Z,988.04
2018-01-03T05:45:50.074Z,987.98
2018-01-03T05:46:50.032Z,987.94
2018-01-03T05:47:49.994Z,987.94
2018-01-03T05:48:49.949Z,987.88
2018-01-03T05:49:49.904Z,987.81
2018-01-03T05:50:49.866Z,987.69
2018-01-03T05:51:49.821Z,987.65
2018-01-03T05:52:49.777Z,987.65
2018-01-03T05:53:49.739Z,987.61
2018-01-03T05:54:49.722Z,987.61
2018-01-03T05:55:49.655Z,987.54
2018-01-03T05:56:49.616Z,987.37
2018-01-03T05:57:49.575Z,987.42
2018-01-03T05:58:49.530Z,987.39
2018-01-03T05:59:49.493Z,987.32
2018-01-03T06:00:49.451Z,987.26
2018-01-03T06:01:49.408Z,987.30
2018-01-03T06:02:49.364Z,987.23
2018-01-03T06:03:49.319Z,987.20
2018-01-03T06:04:49.280Z,987.13
2018-01-03T06:05:49.243Z,987.11
2018-01-03T06:06:49.196Z,987.03
2018-01-03T06:07:49.156Z,987.02
2018-01-03T06:08:49.114Z,986.87
2018-01-03T06:09:49.071Z,986.93
2018-01-03T06:10:49.030Z,986.85
2018-01-03T06:11:48.993Z,986.76
2018-01-03T06:12:48.948Z,986.68
2018-01-03T06:13:48.904Z,986.67
2018-01-03T06:14:48.865Z,986.65
2018-01-03T06:15:48.820Z,986.54
2018-01-03T06:16:48.785Z,986.43
2018-01-03T06:17:48.743Z,986.32
2018-01-03T06:18:48.697Z,986.26
2018-01-03T06:19:48.656Z,986.18
2018-01-03T06:20:48.613Z,986.06
2018-01-03T06:21:48.571Z,985.99
2018-01-03T06:22:48.537Z,985.82
2018-01-03T06:23:48.487Z,985.83
2018-01-03T06:24:48.448Z,985.69
2018-01-03T06:25:48.413Z,985.71
2018-01-03T06:26:48.362Z,985.69
2018-01-03T06:27:48.330Z,985.63
2018-01-03T06:28:48.284Z,985.60
2018-01-03T06:29:48.237Z,985.55
2018-01-03T06:30:48.198Z,985.50
2018-01-03T06:31:48.164Z,985.41
2018-01-03T06:32:48.125Z,985.38
2018-01-03T06:33:48.075Z,985.36
2018-01-03T06:34:48.036Z,985.31
2018-01-03T06:35:47.994Z,985.25
2018-01-03T06:36:47.952Z,985.25
2018-01-03T06:37:47.905Z,985.20
2018-01-03T06:38:47.865Z,985.24
2018-01-03T06:39:47.824Z,985.16
2018-01-03T06:40:47.799Z,985.09
2018-01-03T06:41:47.786Z,985.12
2018-01-03T06:42:47.716Z,985.10
2018-01-03T06:43:47.655Z,984.96
2018-01-03T06:44:47.614Z,985.00
2018-01-03T06:45:47.578Z,984.91
2018-01-03T06:46:47.537Z,984.75
2018-01-03T06:47:47.495Z,984.68
2018-01-03T06:48:47.453Z,984.61
2018-01-03T06:49:47.451Z,984.62
2018-01-03T06:50:47.370Z,984.55
2018-01-03T06:51:47.416Z,984.54
2018-01-03T06:52:47.290Z,984.52
2018-01-03T06:53:47.240Z,984.45
2018-01-03T06:54:47.198Z,984.34
2018-01-03T06:55:47.156Z,984.18
2018-01-03T06:56:47.111Z,984.11
2018-01-03T06:57:47.068Z,984.09
2018-01-03T06:58:47.035Z,984.01
2018-01-03T06:59:47.009Z,983.97
2018-01-03T07:00:46.949Z,983.87
2018-01-03T07:01:46.914Z,983.89
2018-01-03T07:02:46.925Z,983.82
2018-01-03T07:03:46.825Z,983.68
2018-01-03T07:04:46.776Z,983.55
2018-01-03T07:05:46.758Z,983.45
2018-01-03T07:06:46.701Z,983.49
2018-01-03T07:07:46.651Z,983.51
2018-01-03T07:08:46.618Z,983.51
2018-01-03T07:09:46.571Z,983.48
2018-01-03T07:10:46.536Z,983.56
2018-01-03T07:11:46.490Z,983.52
2018-01-03T07:12:46.443Z,983.52
2018-01-03T07:13:46.402Z,983.52
2018-01-03T07:14:46.362Z,983.39
2018-01-03T07:15:46.322Z,983.47
2018-01-03T07:16:46.281Z,983.40
2018-01-03T07:17:46.238Z,983.27
2018-01-03T07:18:46.203Z,983.27
2018-01-03T07:19:46.159Z,983.34
2018-01-03T07:20:46.111Z,983.20
2018-01-03T07:21:46.071Z,983.19
2018-01-03T07:22:46.026Z,983.23
2018-01-03T07:23:45.987Z,983.06
2018-01-03T07:24:45.992Z,983.09
2018-01-03T07:25:45.914Z,983.09
2018-01-03T07:26:45.865Z,983.10
2018-01-03T07:27:45.879Z,983.01
2018-01-03T07:28:45.786Z,983.05
2018-01-03T07:29:45.742Z,982.98
2018-01-03T07:30:45.700Z,982.96
2018-01-03T07:31:45.651Z,982.95
2018-01-03T07:32:45.637Z,982.96
2018-01-03T07:33:45.583Z,982.96
2018-01-03T07:34:45.532Z,982.88
2018-01-03T07:35:45.494Z,982.87
2018-01-03T07:36:45.442Z,982.81
2018-01-03T07:37:45.429Z,982.80
2018-01-03T07:38:45.363Z,982.81
2018-01-03T07:39:45.340Z,982.76
2018-01-03T07:40:45.336Z,982.75
2018-01-03T07:41:45.237Z,982.77
2018-01-03T07:42:45.203Z,982.67
2018-01-03T07:43:45.158Z,982.61
2018-01-03T07:44:45.112Z,982.58
2018-01-03T07:45:45.069Z,982.49
2018-01-03T07:46:45.026Z,982.48
2018-01-03T07:47:44.984Z,982.51
2018-01-03T07:48:44.942Z,982.27
2018-01-03T07:49:44.900Z,982.38
2018-01-03T07:50:44.858Z,982.43
2018-01-03T07:51:44.819Z,982.32
2018-01-03T07:52:44.779Z,982.38
2018-01-03T07:53:44.739Z,982.28
2018-01-03T07:54:44.698Z,982.23
2018-01-03T07:55:44.651Z,982.27
2018-01-03T07:56:44.606Z,982.20
2018-01-03T07:57:44.569Z,982.17
2018-01-03T07:58:44.535Z,982.24
2018-01-03T07:59:44.499Z,982.17
2018-01-03T08:00:44.441Z,982.17
2018-01-03T08:01:44.407Z,982.11
2018-01-03T08:02:44.359Z,982.15
2018-01-03T08:03:44.320Z,982.22
2018-01-03T08:04:44.279Z,981.91
2018-01-03T08:05:44.240Z,981.97
2018-01-03T08:06:44.212Z,982.05
2018-01-03T08:07:44.153Z,982.07
2018-01-03T08:08:44.116Z,981.97
2018-01-03T08:09:44.073Z,981.85
2018-01-03T08:10:44.025Z,981.86
2018-01-03T08:11:43.988Z,981.77
2018-01-03T08:12:43.945Z,981.58
2018-01-03T08:13:43.901Z,981.59
2018-01-03T08:14:43.861Z,981.52
2018-01-03T08:15:43.821Z,981.47
2018-01-03T08:16:43.778Z,981.40
2018-01-03T08:17:43.739Z,981.32
2018-01-03T08:18:43.705Z,981.23
2018-01-03T08:19:43.660Z,981.13
2018-01-03T08:20:43.609Z,981.01
2018-01-03T08:21:43.570Z,981.03
2018-01-03T08:22:43.532Z,980.88
2018-01-03T08:23:43.487Z,980.85
2018-01-03T08:24:43.459Z,980.67
2018-01-03T08:25:43.406Z,980.60
2018-01-03T08:26:43.372Z,980.28
2018-01-03T08:27:43.320Z,980.35
2018-01-03T08:28:43.295Z,980.09
2018-01-03T08:29:43.240Z,980.09
2018-01-03T08:30:43.248Z,979.99
2018-01-03T08:31:43.153Z,980.03
2018-01-03T08:32:43.126Z,980.13
2018-01-03T08:33:43.085Z,979.95
2018-01-03T08:34:43.033Z,980.00
2018-01-03T08:35:42.992Z,980.15
2018-01-03T08:36:43.008Z,980.31
2018-01-03T08:37:42.909Z,980.27
2018-01-03T08:38:42.871Z,980.37
2018-01-03T08:39:42.829Z,980.34
2018-01-03T08:40:42.785Z,980.12
2018-01-03T08:41:42.742Z,980.04
2018-01-03T08:42:42.778Z,980.17
2018-01-03T08:43:42.656Z,980.18
2018-01-03T08:44:42.617Z,980.23
2018-01-03T08:45:42.576Z,980.45
2018-01-03T08:46:42.535Z,980.80
2018-01-03T08:47:42.502Z,980.91
2018-01-03T08:48:42.480Z,981.06
2018-01-03T08:49:42.442Z,981.03
2018-01-03T08:50:42.381Z,980.89
2018-01-03T08:51:42.330Z,980.84
2018-01-03T08:52:42.286Z,980.79
2018-01-03T08:53:42.247Z,980.77
2018-01-03T08:54:42.284Z,980.77
2018-01-03T08:55:42.166Z,980.82
2018-01-03T08:56:42.122Z,980.86
2018-01-03T08:57:42.083Z,980.83
2018-01-03T08:58:42.038Z,980.70
2018-01-03T08:59:42.007Z,980.72
2018-01-03T09:00:41.957Z,980.64
2018-01-03T09:01:41.918Z,980.50
2018-01-03T09:02:41.887Z,980.44
2018-01-03T09:03:41.832Z,980.39
2018-01-03T09:05:02.788Z,980.30
2018-01-03T09:05:41.753Z,980.33
2018-01-03T09:06:41.710Z,980.32
2018-01-03T09:07:41.675Z,980.39
2018-01-03T09:08:41.625Z,980.33
2018-01-03T09:09:41.585Z,980.30
2018-01-03T09:10:41.557Z,980.34
2018-01-03T09:11:41.505Z,980.26
2018-01-03T09:12:41.463Z,980.25
2018-01-03T09:13:41.422Z,980.23
2018-01-03T09:14:41.416Z,980.28
2018-01-03T09:15:41.354Z,980.23
2018-01-03T09:16:41.302Z,980.19
2018-01-03T09:17:42.102Z,980.21
2018-01-03T09:18:41.220Z,980.22
2018-01-03T09:19:41.179Z,980.21
2018-01-03T09:20:41.134Z,980.15
2018-01-03T09:21:41.095Z,980.16
2018-01-03T09:22:41.056Z,980.16
2018-01-03T09:23:41.030Z,980.18
2018-01-03T09:24:40.973Z,980.11
2018-01-03T09:25:40.934Z,980.08
2018-01-03T09:26:40.890Z,980.06
2018-01-03T09:27:40.850Z,980.16
2018-01-03T09:28:40.809Z,980.12
2018-01-03T09:29:40.774Z,980.06
2018-01-03T09:30:40.737Z,980.05
2018-01-03T09:31:40.690Z,980.01
2018-01-03T09:32:40.647Z,980.02
2018-01-03T09:33:40.607Z,980.01
2018-01-03T09:34:40.575Z,980.04
2018-01-03T09:35:40.524Z,980.07
2018-01-03T09:36:40.493Z,980.01
2018-01-03T09:37:40.441Z,980.00
2018-01-03T09:38:40.400Z,979.94
2018-01-03T09:39:40.360Z,979.97
2018-01-03T09:40:40.320Z,979.98
2018-01-03T09:41:40.280Z,979.94
2018-01-03T09:42:40.240Z,979.95
2018-01-03T09:43:40.215Z,979.98
2018-01-03T09:44:40.158Z,979.96
2018-01-03T09:45:40.116Z,979.88
2018-01-03T09:46:40.078Z,979.93
2018-01-03T09:47:40.038Z,979.83
2018-01-03T09:48:39.998Z,979.87
2018-01-03T09:49:39.957Z,979.91
2018-01-03T09:50:39.923Z,979.87
2018-01-03T09:51:39.875Z,979.85
2018-01-03T09:52:39.834Z,979.83
2018-01-03T09:53:39.794Z,979.81
2018-01-03T09:54:39.760Z,979.77
2018-01-03T09:55:39.713Z,979.79
2018-01-03T09:56:39.691Z,979.64
2018-01-03T09:57:39.644Z,979.80
2018-01-03T09:58:39.590Z,979.85
2018-01-03T09:59:39.552Z,979.78
2018-01-03T10:00:39.512Z,979.82
2018-01-03T10:01:39.473Z,979.85
2018-01-03T10:02:39.431Z,979.83
2018-01-03T10:03:39.389Z,979.88
2018-01-03T10:04:39.350Z,979.93
2018-01-03T10:05:39.308Z,979.91
2018-01-03T10:06:39.268Z,979.79
2018-01-03T10:07:39.225Z,979.78
2018-01-03T10:08:39.187Z,979.76
2018-01-03T10:09:39.150Z,979.72
2018-01-03T10:10:39.108Z,979.75
2018-01-03T10:11:39.065Z,979.85
2018-01-03T10:12:39.025Z,979.85
2018-01-03T10:13:38.987Z,979.97
2018-01-03T10:16:10.524Z,980.22
2018-01-03T10:17:10.448Z,980.13
2018-01-03T10:19:03.270Z,979.92
2018-01-03T10:20:03.217Z,979.89
2018-01-03T10:21:56.042Z,979.74
2018-01-03T10:22:56.596Z,979.82
2018-01-03T10:24:48.805Z,980.06
2018-01-03T10:25:48.758Z,980.19
2018-01-03T10:27:41.594Z,980.20
2018-01-03T10:28:41.539Z,980.18
2018-01-03T10:30:34.352Z,980.18
2018-01-03T10:31:34.309Z,980.13
2018-01-03T10:33:27.153Z,980.04
2018-01-03T10:34:27.095Z,980.09
2018-01-03T10:36:19.904Z,980.05
2018-01-03T10:37:19.857Z,980.06
2018-01-03T10:39:12.776Z,979.99
2018-01-03T10:40:12.623Z,979.97
2018-01-03T10:41:12.579Z,979.99
2018-01-03T10:42:12.541Z,979.94
2018-01-03T10:43:12.504Z,979.92
2018-01-03T10:44:12.468Z,979.92
2018-01-03T10:45:12.425Z,979.93
2018-01-03T10:46:12.390Z,979.91
2018-01-03T10:47:12.347Z,979.89
2018-01-03T10:48:12.300Z,979.97
2018-01-03T10:49:12.282Z,980.00
2018-01-03T10:50:12.223Z,979.97
2018-01-03T10:51:12.194Z,980.02
2018-01-03T10:52:12.145Z,980.02
2018-01-03T10:53:12.102Z,980.04
2018-01-03T10:54:12.062Z,979.96
2018-01-03T10:55:12.031Z,979.96
2018-01-03T10:56:11.985Z,980.00
2018-01-03T10:57:11.942Z,979.98
2018-01-03T10:58:11.904Z,979.96
2018-01-03T10:59:11.866Z,979.97
2018-01-03T11:00:11.834Z,979.95
2018-01-03T11:01:11.786Z,979.97
2018-01-03T11:02:11.744Z,979.92
2018-01-03T11:03:11.706Z,979.90
2018-01-03T11:04:11.674Z,979.88
2018-01-03T11:05:11.635Z,979.87
2018-01-03T11:06:11.590Z,979.85
2018-01-03T11:07:11.547Z,979.85
2018-01-03T11:08:11.517Z,979.74
2018-01-03T11:09:11.468Z,979.76
2018-01-03T11:10:11.431Z,979.74
2018-01-03T11:11:11.394Z,979.71
2018-01-03T11:12:11.352Z,979.72
2018-01-03T11:13:11.320Z,979.74
2018-01-03T11:14:11.274Z,979.77
2018-01-03T11:15:11.234Z,979.82
2018-01-03T11:16:11.193Z,979.85
2018-01-03T11:17:11.155Z,979.83
2018-01-03T11:18:11.115Z,979.76
2018-01-03T11:19:11.075Z,979.79
2018-01-03T11:20:11.041Z,979.80
2018-01-03T11:21:11.002Z,979.78
2018-01-03T11:22:10.958Z,979.80
2018-01-03T11:23:10.929Z,979.69
2018-01-03T11:24:10.878Z,979.70
2018-01-03T11:25:10.837Z,979.65
2018-01-03T11:26:10.798Z,979.59
2018-01-03T11:27:10.759Z,979.48
2018-01-03T11:28:10.730Z,979.55
2018-01-03T11:29:10.683Z,979.56
2018-01-03T11:30:10.645Z,979.54
2018-01-03T11:31:10.611Z,979.60
2018-01-03T11:32:10.566Z,979.61
2018-01-03T11:33:10.533Z,979.66
2018-01-03T11:34:10.485Z,979.65
2018-01-03T11:35:10.454Z,979.60
2018-01-03T11:36:10.408Z,979.63
2018-01-03T11:37:10.368Z,979.63
2018-01-03T11:38:10.338Z,979.61
2018-01-03T11:39:10.296Z,979.63
2018-01-03T11:40:10.259Z,979.67
2018-01-03T11:41:10.213Z,979.68
2018-01-03T11:42:10.182Z,979.65
2018-01-03T11:43:10.140Z,979.62
2018-01-03T11:44:10.095Z,979.70
2018-01-03T11:45:10.055Z,979.68
2018-01-03T11:46:10.016Z,979.65
2018-01-03T11:47:09.979Z,979.70
2018-01-03T11:48:09.938Z,979.68
2018-01-03T11:49:09.900Z,979.75
2018-01-03T11:50:09.863Z,979.82
2018-01-03T11:51:09.823Z,979.86
2018-01-03T11:52:09.785Z,979.93
2018-01-03T11:53:09.745Z,979.92
2018-01-03T11:54:09.712Z,979.95
2018-01-03T11:55:09.667Z,979.97
2018-01-03T11:56:09.627Z,979.99
2018-01-03T11:57:09.608Z,980.05
2018-01-03T11:58:09.552Z,980.20
2018-01-03T11:59:09.513Z,980.09
2018-01-03T12:00:09.475Z,980.09
2018-01-03T12:01:09.439Z,980.13
2018-01-03T12:02:09.397Z,980.06
2018-01-03T12:03:09.358Z,980.15
2018-01-03T12:04:09.316Z,980.18
2018-01-03T12:05:09.279Z,980.17
2018-01-03T12:06:09.243Z,980.36
2018-01-03T12:07:09.199Z,980.28
2018-01-03T12:08:09.168Z,980.38
2018-01-03T12:09:09.142Z,980.22
2018-01-03T12:10:09.095Z,980.45
2018-01-03T12:11:09.042Z,980.42
2018-01-03T12:12:09.003Z,980.23
2018-01-03T12:13:08.974Z,980.33
2018-01-03T12:14:08.935Z,980.34
2018-01-03T12:15:08.886Z,980.42
2018-01-03T12:16:08.848Z,980.39
2018-01-03T12:17:08.809Z,980.39
2018-01-03T12:18:08.770Z,980.38
2018-01-03T12:19:08.732Z,980.34
2018-01-03T12:20:08.689Z,980.30
2018-01-03T12:21:08.647Z,980.22
2018-01-03T12:22:08.608Z,980.29
2018-01-03T12:23:08.589Z,980.24
2018-01-03T12:24:08.534Z,980.30
2018-01-03T12:25:08.490Z,980.26
2018-01-03T12:26:08.451Z,980.33
2018-01-03T12:27:08.414Z,980.35
2018-01-03T12:28:08.369Z,980.41
2018-01-03T12:29:08.330Z,980.42
2018-01-03T12:30:08.290Z,980.42
2018-01-03T12:31:08.250Z,980.47
2018-01-03T12:32:08.209Z,980.46
2018-01-03T12:33:08.169Z,980.47
2018-01-03T12:34:08.136Z,980.53